Time;durP1;ratioP1;P1;durP2;ratioP2;P2;SDS_P1;SDS_P2;PMS_P1;PMS_P2;Temp;Humidity;BMP_temperature;BMP_pressure;BME280_temperature;BME280_humidity;BME280_pressure;Samples;Min_cycle;Max_cycle;Signal;HPM_P1;HPM_P2
2023/01/12 00:02:08;;;;;;;2.10;1.48;;;;;;;5.53;100.00;100667.81;5029649;28;20042;-82
2023/01/12 00:04:34;;;;;;;2.55;1.80;;;;;;;5.50;100.00;100656.59;5013233;28;20084;-82
2023/01/12 00:07:03;;;;;;;3.75;1.90;;;;;;;5.34;100.00;100644.53;5013028;28;20049;-82
2023/01/12 00:09:28;;;;;;;7.15;2.53;;;;;;;5.44;100.00;100657.91;5029796;28;20029;-81
2023/01/12 00:11:54;;;;;;;2.20;1.50;;;;;;;5.38;100.00;100654.97;5029832;28;20507;-81
2023/01/12 00:14:19;;;;;;;2.20;1.83;;;;;;;5.01;100.00;100605.84;5029765;28;20033;-85
2023/01/12 00:16:45;;;;;;;4.40;1.58;;;;;;;5.27;100.00;100636.38;5013316;28;20595;-83
2023/01/12 00:19:16;;;;;;;3.67;1.75;;;;;;;5.29;100.00;100643.38;5029717;28;20111;-82
2023/01/12 00:21:45;;;;;;;5.03;1.60;;;;;;;5.36;100.00;100654.88;5029616;28;20049;-82
2023/01/12 00:24:10;;;;;;;2.30;1.50;;;;;;;5.57;100.00;100683.47;5029313;28;20067;-82
2023/01/12 00:26:36;;;;;;;2.72;1.90;;;;;;;5.62;100.00;100684.63;5012608;28;20037;-82
2023/01/12 00:29:01;;;;;;;2.90;2.00;;;;;;;5.63;100.00;100683.84;5029435;28;20116;-83
2023/01/12 00:31:26;;;;;;;2.22;1.60;;;;;;;5.75;100.00;100700.72;5029248;28;20030;-82
2023/01/12 00:33:52;;;;;;;2.65;1.70;;;;;;;5.80;100.00;100704.44;5015334;28;20030;-83
2023/01/12 00:40:36;;;;;;;3.78;1.70;;;;;;;5.75;100.00;100693.91;5013673;28;20092;-83
2023/01/12 00:46:36;;;;;;;2.60;1.90;;;;;;;5.54;100.00;100667.91;5055586;22;20126;-82
2023/01/12 00:49:03;;;;;;;4.57;2.22;;;;;;;5.65;100.00;100684.78;5032088;28;20033;-81
2023/01/12 00:51:28;;;;;;;2.72;1.98;;;;;;;4.94;100.00;100574.69;5031837;28;20021;-82
2023/01/12 00:53:54;;;;;;;4.25;2.10;;;;;;;5.32;100.00;100635.88;5030443;28;20028;-82
2023/01/12 00:56:19;;;;;;;2.22;1.73;;;;;;;5.56;100.00;100683.34;5031955;28;20025;-82
2023/01/12 00:58:45;;;;;;;3.00;2.10;;;;;;;5.62;100.00;100699.09;5031856;28;20025;-82
2023/01/12 01:01:11;;;;;;;4.22;1.90;;;;;;;5.16;100.00;100616.16;5031772;28;20078;-83
2023/01/12 01:03:36;;;;;;;2.67;1.80;;;;;;;5.08;100.00;100614.78;5031799;28;20495;-82
2023/01/12 01:06:06;;;;;;;2.90;1.65;;;;;;;5.43;100.00;100698.00;5031647;28;20025;-82
2023/01/12 01:08:35;;;;;;;2.90;1.88;;;;;;;5.38;100.00;100693.38;5030166;28;20057;-82
2023/01/12 01:11:06;;;;;;;4.18;1.90;;;;;;;5.30;100.00;100695.47;5031746;28;20068;-82
2023/01/12 01:13:32;;;;;;;4.57;1.80;;;;;;;5.30;100.00;100698.03;5009310;28;20041;-82
2023/01/12 01:16:01;;;;;;;2.70;1.85;;;;;;;4.98;100.00;100656.81;5009336;28;20609;-82
2023/01/12 01:18:27;;;;;;;2.33;1.80;;;;;;;5.02;100.00;100671.59;5009314;28;20577;-82
2023/01/12 01:20:52;;;;;;;3.17;2.00;;;;;;;4.98;100.00;100672.19;5009176;28;20037;-83
2023/01/12 01:23:18;;;;;;;2.33;1.80;;;;;;;4.64;100.00;100608.69;5009337;28;20060;-83
2023/01/12 01:25:43;;;;;;;2.17;1.67;;;;;;;4.61;100.00;100605.94;5009307;28;20410;-82
2023/01/12 01:28:09;;;;;;;3.75;1.65;;;;;;;5.11;100.00;100678.97;4992805;28;20041;-82
2023/01/12 01:30:34;;;;;;;2.85;1.60;;;;;;;4.97;100.00;100667.88;4992812;28;20022;-81
2023/01/12 01:32:59;;;;;;;2.60;1.70;;;;;;;4.35;100.00;100537.84;5009118;28;20065;-82
2023/01/12 01:35:25;;;;;;;1.50;1.30;;;;;;;5.00;100.00;100665.50;5008312;28;20103;-83
2023/01/12 01:37:50;;;;;;;2.10;1.33;;;;;;;4.85;100.00;100628.72;4992615;28;20032;-82
2023/01/12 01:40:16;;;;;;;2.80;1.50;;;;;;;5.27;100.00;100687.59;5009050;28;20041;-83
2023/01/12 01:42:41;;;;;;;2.40;1.50;;;;;;;4.45;100.00;100541.81;5009086;28;20026;-82
2023/01/12 01:45:13;;;;;;;2.90;1.58;;;;;;;5.20;100.00;100678.66;5025846;28;20053;-82
2023/01/12 01:47:49;;;;;;;1.60;1.30;;;;;;;5.22;100.00;100686.41;5026623;28;20044;-82
2023/01/12 01:50:22;;;;;;;2.33;1.42;;;;;;;5.27;100.00;100691.03;5014367;28;20038;-82
2023/01/12 01:52:55;;;;;;;3.95;1.60;;;;;;;5.24;100.00;100680.59;5005314;28;20037;-82
2023/01/12 01:55:56;;;;;;;2.20;1.48;;;;;;;5.32;100.00;100692.22;5012217;28;20116;-83
2023/01/12 01:58:35;;;;;;;2.08;1.58;;;;;;;4.88;100.00;100608.44;4988536;28;20064;-81
2023/01/12 02:01:00;;;;;;;3.22;1.48;;;;;;;5.27;100.00;100665.44;4988856;28;20081;-82
2023/01/12 02:03:27;;;;;;;2.22;1.55;;;;;;;4.99;100.00;100612.53;4988681;28;20710;-79
2023/01/12 02:05:54;;;;;;;2.30;1.58;;;;;;;5.32;100.00;100660.59;4985705;28;20023;-81
2023/01/12 02:08:57;;;;;;;2.10;1.75;;;;;;;5.50;100.00;100673.63;4968935;28;20053;-82
2023/01/12 02:17:38;;;;;;;2.00;1.40;;;;;;;5.51;100.00;100667.72;4965195;28;20111;-82
2023/01/12 02:20:22;;;;;;;3.80;1.60;;;;;;;5.19;100.00;100605.22;4949696;29;20027;-82
2023/01/12 02:22:50;;;;;;;2.47;1.67;;;;;;;5.30;100.00;100616.13;4949745;29;20129;-83
2023/01/12 02:25:46;;;;;;;3.33;1.58;;;;;;;5.30;100.00;100621.22;4930303;29;20148;-82
2023/01/12 02:28:36;;;;;;;2.33;1.48;;;;;;;5.41;100.00;100683.31;4930154;29;20048;-82
2023/01/12 02:31:31;;;;;;;3.03;1.50;;;;;;;5.27;100.00;100682.47;4930488;29;20032;-82
2023/01/12 02:34:55;;;;;;;2.67;1.70;;;;;;;4.91;100.00;100638.44;4926356;29;20028;-81
2023/01/12 02:37:53;;;;;;;2.08;1.40;;;;;;;4.98;100.00;100661.06;4877252;29;20039;-83
2023/01/12 02:40:58;;;;;;;2.30;1.60;;;;;;;5.15;100.00;100682.59;4892607;29;20045;-82
2023/01/12 02:43:30;;;;;;;2.40;1.70;;;;;;;4.96;100.00;100657.53;4930135;29;20031;-83
2023/01/12 02:46:20;;;;;;;1.90;1.52;;;;;;;5.04;100.00;100665.69;4920315;29;20139;-83
2023/01/12 02:48:50;;;;;;;2.75;1.75;;;;;;;5.14;100.00;100681.69;4914861;29;20056;-83
2023/01/12 02:51:36;;;;;;;2.22;1.60;;;;;;;5.16;100.00;100671.59;4899282;29;20116;-84
2023/01/12 02:54:05;;;;;;;2.88;1.48;;;;;;;5.20;100.00;100683.78;4899183;29;20082;-83
2023/01/12 02:56:36;;;;;;;2.35;1.63;;;;;;;4.88;100.00;100631.47;4892511;29;20045;-82
2023/01/12 02:59:08;;;;;;;1.83;1.40;;;;;;;4.20;100.00;100513.06;4877209;29;20045;-83
2023/01/12 03:01:35;;;;;;;3.70;1.70;;;;;;;4.69;100.00;100602.19;4877357;29;20033;-86
2023/01/12 03:04:03;;;;;;;1.52;1.30;;;;;;;4.94;100.00;100657.44;4892670;29;20068;-83
2023/01/12 03:06:46;;;;;;;2.00;1.25;;;;;;;5.15;100.00;100692.84;4877015;29;20053;-81
2023/01/12 03:09:16;;;;;;;2.00;1.50;;;;;;;5.07;100.00;100689.81;4877073;29;20060;-83
2023/01/12 03:11:44;;;;;;;1.77;1.23;;;;;;;5.04;100.00;100691.28;4907421;29;20130;-83
2023/01/12 03:14:12;;;;;;;1.90;1.50;;;;;;;4.91;100.00;100670.06;4933453;29;20042;-83
2023/01/12 03:16:39;;;;;;;2.03;1.50;;;;;;;4.94;100.00;100690.69;4933625;29;20047;-80
2023/01/12 03:19:08;;;;;;;1.73;1.30;;;;;;;4.37;100.00;100584.81;4967188;28;20053;-83
2023/01/12 03:21:52;;;;;;;2.78;1.48;;;;;;;4.98;100.00;100687.53;4991608;28;20473;-84
2023/01/12 03:24:24;;;;;;;3.03;1.63;;;;;;;5.05;100.00;100690.47;4991501;28;20042;-88
2023/01/12 03:26:55;;;;;;;2.63;1.10;;;;;;;5.02;100.00;100691.16;4991282;28;20018;-84
2023/01/12 03:29:33;;;;;;;1.83;1.27;;;;;;;5.08;100.00;100699.22;4991525;28;20042;-83
2023/01/12 03:31:59;;;;;;;2.47;1.35;;;;;;;4.91;100.00;100664.94;4991112;28;20034;-82
2023/01/12 03:34:25;;;;;;;1.50;1.30;;;;;;;5.13;100.00;100694.41;4974529;28;20042;-84
2023/01/12 03:36:58;;;;;;;2.10;1.50;;;;;;;5.28;100.00;100709.84;4988954;28;20034;-81
2023/01/12 03:39:54;;;;;;;2.85;1.40;;;;;;;5.18;100.00;100688.81;5010635;28;20388;-83
2023/01/12 03:42:27;;;;;;;1.88;1.40;;;;;;;5.30;100.00;100695.47;5010729;28;20029;-83
2023/01/12 03:45:01;;;;;;;2.03;1.20;;;;;;;5.43;100.00;100707.34;5011207;28;20538;-83
2023/01/12 03:47:30;;;;;;;2.60;1.80;;;;;;;5.53;100.00;100724.16;5013031;28;20034;-83
2023/01/12 03:50:19;;;;;;;2.83;1.73;;;;;;;5.56;100.00;100702.19;5013318;28;20034;-84
2023/01/12 03:52:47;;;;;;;2.85;1.40;;;;;;;5.04;100.00;100622.19;5012854;28;20041;-83
2023/01/12 03:55:16;;;;;;;1.90;1.20;;;;;;;5.57;100.00;100714.19;5012718;28;20060;-84
2023/01/12 03:57:44;;;;;;;4.07;1.30;;;;;;;5.51;100.00;100711.25;5011094;28;20038;-83
2023/01/12 04:00:12;;;;;;;2.03;1.25;;;;;;;5.41;100.00;100714.03;5012820;28;20034;-83
2023/01/12 04:02:37;;;;;;;1.05;0.95;;;;;;;4.82;100.00;100613.19;5011527;28;20060;-83
2023/01/12 04:05:05;;;;;;;2.58;1.67;;;;;;;4.86;100.00;100617.72;5012781;28;20485;-83
2023/01/12 04:07:31;;;;;;;1.77;1.23;;;;;;;5.21;100.00;100672.75;4995624;28;20054;-85
2023/01/12 04:09:56;;;;;;;3.20;2.13;;;;;;;5.06;100.00;100638.50;4993354;28;20054;-83
2023/01/12 04:12:22;;;;;;;3.08;2.15;;;;;;;5.37;100.00;100695.06;4993230;28;20040;-83
2023/01/12 04:14:48;;;;;;;6.80;2.35;;;;;;;5.36;100.00;100718.88;4992999;28;20108;-83
2023/01/12 04:17:14;;;;;;;2.67;1.88;;;;;;;5.32;100.00;100716.91;4992853;28;20026;-83
2023/01/12 04:19:40;;;;;;;4.20;1.90;;;;;;;5.35;100.00;100723.09;4992771;28;20523;-83
2023/01/12 04:24:51;;;;;;;2.97;1.85;;;;;;;5.34;100.00;100726.44;4992543;28;20034;-83
2023/01/12 04:27:17;;;;;;;3.33;2.10;;;;;;;5.17;100.00;100693.81;4992621;28;20058;-84
2023/01/12 04:29:43;;;;;;;3.15;1.95;;;;;;;5.26;100.00;100711.41;4992654;28;20076;-83
2023/01/12 04:32:08;;;;;;;3.45;2.30;;;;;;;5.31;100.00;100723.72;5017875;28;20038;-82
2023/01/12 04:34:34;;;;;;;3.05;2.00;;;;;;;5.35;100.00;100732.47;5009481;28;20045;-83
2023/01/12 04:37:00;;;;;;;6.63;2.13;;;;;;;5.29;100.00;100721.84;5007327;28;20495;-83
2023/01/12 04:39:26;;;;;;;4.25;2.13;;;;;;;5.37;100.00;100735.13;5009480;28;20061;-83
2023/01/12 04:41:51;;;;;;;2.53;1.70;;;;;;;5.32;100.00;100715.25;5002409;28;20121;-83
2023/01/12 04:44:17;;;;;;;2.95;1.92;;;;;;;5.21;100.00;100698.34;4973448;28;20496;-82
2023/01/12 04:46:42;;;;;;;2.33;1.60;;;;;;;5.21;100.00;100689.75;4991543;28;20050;-84
2023/01/12 04:49:08;;;;;;;4.40;2.30;;;;;;;4.86;100.00;100635.63;4996193;28;20046;-84
2023/01/12 04:51:33;;;;;;;3.50;2.08;;;;;;;4.99;100.00;100666.28;5002768;28;20113;-82
2023/01/12 04:53:59;;;;;;;3.65;2.35;;;;;;;5.22;100.00;100722.25;5003923;28;20499;-82
2023/01/12 04:56:24;;;;;;;4.22;2.13;;;;;;;4.89;100.00;100655.41;5009146;28;20068;-82
2023/01/12 04:58:58;;;;;;;3.45;2.17;;;;;;;5.23;100.00;100717.22;5009041;28;20042;-82
2023/01/12 05:01:24;;;;;;;2.65;1.70;;;;;;;5.27;100.00;100723.41;5009123;28;20038;-83
2023/01/12 05:03:49;;;;;;;2.28;1.58;;;;;;;5.26;100.00;100730.22;5008863;28;20073;-81
2023/01/12 05:06:14;;;;;;;2.97;1.60;;;;;;;5.11;100.00;100716.44;5009002;28;20060;-83
2023/01/12 05:11:27;;;;;;;3.08;1.90;;;;;;;5.07;100.00;100735.88;5008352;28;20037;-75
2023/01/12 05:13:53;;;;;;;3.58;1.98;;;;;;;5.04;100.00;100725.44;5008822;28;20038;-72
2023/01/12 05:16:18;;;;;;;4.63;2.67;;;;;;;5.00;100.00;100720.91;5008665;28;20033;-82
2023/01/12 05:18:45;;;;;;;6.15;2.83;;;;;;;5.04;100.00;100722.88;5007634;28;20236;-79
2023/01/12 05:21:16;;;;;;;5.25;2.13;;;;;;;5.15;100.00;100733.78;4992631;28;20435;-82
2023/01/12 05:23:43;;;;;;;3.72;1.98;;;;;;;5.06;100.00;100716.19;5008830;28;20057;-82
2023/01/12 05:26:09;;;;;;;3.55;2.42;;;;;;;5.25;100.00;100731.00;5008830;28;20484;-80
2023/01/12 05:28:35;;;;;;;2.70;1.60;;;;;;;5.11;100.00;100694.31;5008764;28;20078;-82
2023/01/12 05:31:12;;;;;;;2.53;1.60;;;;;;;5.34;100.00;100733.25;5008503;28;20069;-83
2023/01/12 05:33:39;;;;;;;4.18;1.63;;;;;;;5.38;100.00;100739.47;5008969;28;20168;-81
2023/01/12 05:36:07;;;;;;;2.25;1.35;;;;;;;5.45;100.00;100749.28;4992298;28;20042;-82
2023/01/12 05:38:32;;;;;;;3.70;1.80;;;;;;;5.40;100.00;100722.53;5008692;28;20115;-82
2023/01/12 05:40:59;;;;;;;4.03;1.75;;;;;;;5.43;100.00;100717.56;5008619;28;20499;-82
2023/01/12 05:46:10;;;;;;;2.50;1.63;;;;;;;5.57;100.00;100736.34;5008572;28;20555;-82
2023/01/12 05:48:35;;;;;;;2.88;1.50;;;;;;;5.68;100.00;100755.81;5008491;28;20034;-82
2023/01/12 05:51:02;;;;;;;3.63;1.58;;;;;;;5.68;100.00;100755.81;4969366;28;20105;-81
2023/01/12 05:53:28;;;;;;;2.47;1.80;;;;;;;5.27;100.00;100691.03;4969143;28;20043;-80
2023/01/12 05:55:53;;;;;;;4.35;1.58;;;;;;;5.54;100.00;100741.28;4969260;28;20527;-82
2023/01/12 05:58:19;;;;;;;5.97;1.63;;;;;;;5.54;100.00;100741.28;4969402;28;20046;-81
2023/01/12 06:00:44;;;;;;;3.10;2.03;;;;;;;5.25;100.00;100697.72;4969830;28;20055;-82
2023/01/12 06:03:09;;;;;;;5.60;2.40;;;;;;;5.25;100.00;100702.84;4988323;28;20520;-82
2023/01/12 06:05:35;;;;;;;12.95;7.47;;;;;;;5.57;100.00;100756.84;4988769;28;20527;-81
2023/01/12 06:08:01;;;;;;;20.83;10.50;;;;;;;5.08;100.00;100680.44;4988757;28;20153;-82
2023/01/12 06:10:27;;;;;;;14.98;8.38;;;;;;;5.39;100.00;100744.66;4968823;28;20041;-82
2023/01/12 06:15:36;;;;;;;8.63;4.35;;;;;;;5.43;100.00;100771.34;4969388;28;20042;-83
2023/01/12 06:18:02;;;;;;;10.38;4.72;;;;;;;5.43;100.00;100766.22;4969289;28;20039;-84
2023/01/12 06:20:27;;;;;;;8.35;4.80;;;;;;;5.27;100.00;100739.69;4969281;28;20066;-86
2023/01/12 06:22:53;;;;;;;6.38;3.65;;;;;;;5.43;100.00;100746.66;4992400;28;20040;-83
2023/01/12 06:25:18;;;;;;;8.30;4.35;;;;;;;5.47;100.00;100758.84;5012001;28;20249;-83
2023/01/12 06:27:44;;;;;;;8.43;4.45;;;;;;;5.48;100.00;100763.19;4992265;28;20046;-83
2023/01/12 06:30:11;;;;;;;11.85;6.15;;;;;;;5.35;100.00;100748.72;4992552;28;20049;-83
2023/01/12 06:32:37;;;;;;;9.70;5.60;;;;;;;5.41;100.00;100762.69;4992339;28;20038;-82
2023/01/12 06:35:03;;;;;;;9.73;5.10;;;;;;;4.86;100.00;100694.47;4992578;28;20483;-83
2023/01/12 06:37:29;;;;;;;7.88;4.38;;;;;;;5.21;100.00;100746.97;4992269;28;20045;-83
2023/01/12 06:39:54;;;;;;;6.00;4.10;;;;;;;5.34;100.00;100777.66;4992243;28;20039;-82
2023/01/12 06:42:29;;;;;;;5.40;3.42;;;;;;;5.27;100.00;100760.16;5009344;28;20053;-82
2023/01/12 06:44:55;;;;;;;4.60;2.95;;;;;;;5.35;100.00;100770.88;5011707;28;20041;-83
2023/01/12 06:47:21;;;;;;;6.00;3.30;;;;;;;5.34;100.00;100782.78;5011682;28;20038;-82
2023/01/12 06:49:47;;;;;;;5.13;2.88;;;;;;;5.35;100.00;100773.44;5009147;28;20427;-83
2023/01/12 06:52:32;;;;;;;9.48;3.72;;;;;;;5.35;100.00;100776.00;5011493;28;20037;-83
2023/01/12 06:54:58;;;;;;;9.27;5.28;;;;;;;5.35;100.00;100779.44;4992051;28;20042;-82
2023/01/12 06:57:23;;;;;;;7.55;4.40;;;;;;;5.40;100.00;100781.41;4992067;28;20520;-83
2023/01/12 06:59:48;;;;;;;4.20;1.80;;;;;;;5.21;100.00;100767.44;4994016;28;20042;-82
2023/01/12 07:02:15;;;;;;;4.68;2.08;;;;;;;5.26;100.00;100773.75;5011466;28;20041;-82
2023/01/12 07:04:41;;;;;;;4.10;2.28;;;;;;;4.92;100.00;100711.84;5011110;28;20100;-82
2023/01/12 07:07:08;;;;;;;10.13;2.75;;;;;;;5.32;100.00;100789.50;4994804;28;20042;-82
2023/01/12 07:09:34;;;;;;;3.20;1.95;;;;;;;5.17;100.00;100791.06;4994885;28;20615;-83
2023/01/12 07:12:01;;;;;;;3.03;2.00;;;;;;;4.97;100.00;100784.66;5011432;28;20031;-83
2023/01/12 07:14:26;;;;;;;2.85;1.60;;;;;;;4.98;100.00;100779.63;4994765;28;20069;-83
2023/01/12 07:16:53;;;;;;;2.42;1.60;;;;;;;4.85;100.00;100767.75;5011068;28;20060;-82
2023/01/12 07:19:18;;;;;;;3.28;2.05;;;;;;;4.99;100.00;100791.66;4994605;28;20034;-83
2023/01/12 07:21:44;;;;;;;3.65;2.13;;;;;;;5.12;100.00;100798.47;5011038;28;20052;-82
2023/01/12 07:24:09;;;;;;;3.65;2.50;;;;;;;5.23;100.00;100805.94;5011457;28;20049;-82
2023/01/12 07:26:35;;;;;;;3.60;2.20;;;;;;;5.24;100.00;100785.56;5026209;28;20037;-83
2023/01/12 07:29:01;;;;;;;3.80;1.85;;;;;;;5.28;100.00;100800.34;5030635;28;20120;-81
2023/01/12 07:31:27;;;;;;;2.70;1.67;;;;;;;5.44;100.00;100814.09;5030889;28;20128;-83
2023/01/12 07:33:54;;;;;;;2.90;1.60;;;;;;;5.31;100.00;100789.41;5029523;28;20142;-81
2023/01/12 07:36:20;;;;;;;5.18;2.03;;;;;;;5.10;100.00;100753.97;5013792;28;20041;-83
2023/01/12 07:38:46;;;;;;;5.43;2.30;;;;;;;4.92;100.00;100730.66;5014222;28;20075;-82
2023/01/12 07:42:22;;;;;;;5.50;3.05;;;;;;;5.30;100.00;100782.50;5028246;28;20503;-82
2023/01/12 07:43:57;;;;;;;6.00;3.97;;;;;;;5.40;100.00;100805.34;5012992;28;20078;-82
2023/01/12 07:46:24;;;;;;;5.82;3.88;;;;;;;5.50;100.00;100811.91;5013337;28;20133;-82
2023/01/12 07:48:50;;;;;;;11.85;6.40;;;;;;;5.41;100.00;100801.09;5012866;28;20472;-82
2023/01/12 07:51:16;;;;;;;10.95;6.68;;;;;;;5.53;100.00;100824.91;5013494;28;20046;-82
2023/01/12 07:53:41;;;;;;;8.77;4.05;;;;;;;5.34;100.00;100804.94;5013218;28;20034;-83
2023/01/12 07:56:08;;;;;;;7.72;4.38;;;;;;;5.43;100.00;100813.22;5013062;28;20030;-82
2023/01/12 07:58:34;;;;;;;8.15;4.03;;;;;;;5.40;100.00;100822.38;5013088;28;20048;-80
2023/01/12 08:01:01;;;;;;;6.07;3.40;;;;;;;5.41;100.00;100814.78;4994133;28;20519;-83
2023/01/12 08:03:27;;;;;;;9.38;4.82;;;;;;;5.43;100.00;100825.13;5011611;28;20065;-82
2023/01/12 08:05:53;;;;;;;7.20;3.60;;;;;;;5.43;100.00;100812.31;5012627;28;20030;-83
2023/01/12 08:08:19;;;;;;;9.38;4.70;;;;;;;5.51;100.00;100829.94;5012704;28;20065;-82
2023/01/12 08:10:47;;;;;;;8.10;4.10;;;;;;;5.15;100.00;100762.81;5012657;28;20131;-83
2023/01/12 08:13:12;;;;;;;8.30;4.65;;;;;;;5.66;100.00;100834.25;5012549;28;20055;-84
2023/01/12 08:15:48;;;;;;;6.63;3.78;;;;;;;5.18;100.00;100760.47;5008327;28;20415;-88
2023/01/12 08:18:18;;;;;;;3.80;2.28;;;;;;;5.56;100.00;100835.34;5012801;28;20521;-83
2023/01/12 08:20:44;;;;;;;2.88;1.95;;;;;;;5.67;100.00;100842.03;5012661;28;20042;-83
2023/01/12 08:23:15;;;;;;;8.27;3.22;;;;;;;5.70;100.00;100851.59;5011365;28;20056;-82
2023/01/12 08:25:44;;;;;;;4.05;2.13;;;;;;;5.61;100.00;100835.66;5011251;28;20022;-82
2023/01/12 08:28:16;;;;;;;10.10;3.70;;;;;;;5.71;100.00;100852.47;5012447;28;20030;-82
2023/01/12 08:30:46;;;;;;;8.15;3.80;;;;;;;5.75;100.00;100857.00;5012674;28;20036;-82
2023/01/12 08:33:12;;;;;;;4.00;1.90;;;;;;;5.76;100.00;100858.78;5012338;28;20113;-82
2023/01/12 08:35:38;;;;;;;4.50;1.88;;;;;;;5.74;100.00;100847.53;5012478;28;20544;-82
2023/01/12 08:38:03;;;;;;;10.07;2.88;;;;;;;5.67;100.00;100833.47;5011055;28;20042;-83
2023/01/12 08:41:31;;;;;;;2.72;2.13;;;;;;;5.70;100.00;100836.22;5011872;28;20121;-81
2023/01/12 08:44:00;;;;;;;8.05;3.75;;;;;;;5.55;100.00;100801.97;5011515;28;20108;-82
2023/01/12 08:46:06;;;;;;;5.75;3.17;;;;;;;5.97;100.00;100862.66;5011819;28;20058;-82
2023/01/12 08:48:35;;;;;;;3.90;2.30;;;;;;;5.87;100.00;100844.97;5010907;28;20042;-81
2023/01/12 08:51:02;;;;;;;3.78;1.95;;;;;;;5.99;100.00;100867.91;5011724;28;20029;-82
2023/01/12 08:53:27;;;;;;;5.90;3.22;;;;;;;5.86;100.00;100838.06;5012002;28;20120;-82
2023/01/12 08:55:53;;;;;;;2.17;1.58;;;;;;;5.87;100.00;100841.50;5012323;28;20112;-82
2023/01/12 08:58:18;;;;;;;3.00;1.50;;;;;;;5.66;100.00;100796.72;5011873;28;20025;-81
2023/01/12 09:00:44;;;;;;;2.42;1.52;;;;;;;6.04;100.00;100858.81;5011721;28;20762;-80
2023/01/12 09:03:09;;;;;;;2.00;1.55;;;;;;;5.92;100.00;100842.66;5011192;28;20052;-81
2023/01/12 09:05:35;;;;;;;2.58;1.30;;;;;;;5.45;100.00;100756.97;5010517;28;20037;-82
2023/01/12 09:08:00;;;;;;;2.30;1.75;;;;;;;5.86;100.00;100822.69;5011531;28;20480;-82
2023/01/12 09:10:26;;;;;;;1.70;1.15;;;;;;;5.95;100.00;100853.13;5011734;28;20038;-82
2023/01/12 09:12:51;;;;;;;1.98;1.10;;;;;;;5.89;100.00;100851.03;5010446;28;20106;-82
2023/01/12 09:15:17;;;;;;;1.80;1.35;;;;;;;5.99;100.00;100852.53;5004183;28;20033;-82
2023/01/12 09:17:43;;;;;;;1.15;0.93;;;;;;;5.24;100.00;100744.59;4999581;28;20029;-82
2023/01/12 09:20:09;;;;;;;33.42;17.35;;;;;;;5.77;100.00;100840.03;5000875;28;20049;-81
2023/01/12 09:22:35;;;;;;;2.95;1.30;;;;;;;5.44;100.00;100763.75;5000462;28;20093;-85
2023/01/12 09:25:02;;;;;;;18.58;9.38;;;;;;;5.98;100.00;100848.16;4995729;28;20493;-81
2023/01/12 09:27:27;;;;;;;4.18;2.63;;;;;;;6.09;100.00;100856.56;4990425;28;20027;-81
2023/01/12 09:29:52;;;;;;;2.53;1.77;;;;;;;6.02;100.00;100816.84;4991530;28;20030;-81
2023/01/12 09:32:19;;;;;;;2.20;1.40;;;;;;;6.21;100.00;100857.31;4991508;28;20416;-82
2023/01/12 09:34:47;;;;;;;2.05;1.20;;;;;;;6.14;100.00;100844.91;4990350;28;20121;-80
2023/01/12 09:37:13;;;;;;;2.42;1.58;;;;;;;6.22;100.00;100838.56;4991548;28;20027;-81
2023/01/12 09:39:39;;;;;;;1.60;1.15;;;;;;;6.29;100.00;100838.16;4991689;28;20456;-81
2023/01/12 09:47:55;;;;;;;2.15;1.50;;;;;;;5.81;100.00;100788.22;4991313;28;20603;-81
2023/01/12 09:50:47;;;;;;;3.08;2.13;;;;;;;6.24;100.00;100843.78;4990588;28;20040;-81
2023/01/12 09:53:15;;;;;;;2.42;1.80;;;;;;;6.29;100.00;100838.16;4991303;28;20022;-80
2023/01/12 09:55:50;;;;;;;3.95;2.30;;;;;;;6.34;100.00;100843.53;4989702;28;20651;-81
2023/01/12 09:58:40;;;;;;;1.80;1.40;;;;;;;6.32;100.00;100840.00;4991229;28;20029;-81
2023/01/12 10:01:10;;;;;;;;;;;;;;;6.26;100.00;100840.50;4990610;28;20034;-82
2023/01/12 10:03:38;;;;;;;1.58;1.13;;;;;;;6.31;100.00;100835.66;4991323;28;19909;-81
2023/01/12 10:06:12;;;;;;;4.13;3.05;;;;;;;6.41;100.00;100840.53;4999518;28;20057;-81
2023/01/12 10:08:41;;;;;;;6.53;5.00;;;;;;;6.47;100.00;100850.31;5006548;28;20040;-82
2023/01/12 10:11:14;;;;;;;3.65;2.60;;;;;;;6.55;100.00;100841.38;5010673;28;20080;-81
2023/01/12 10:14:01;;;;;;;1.63;1.30;;;;;;;6.60;100.00;100839.06;5010952;28;20088;-79
2023/01/12 10:16:42;;;;;;;1.70;1.50;;;;;;;6.60;100.00;100829.72;5010979;28;20076;-79
2023/01/12 10:19:35;;;;;;;1.52;1.30;;;;;;;6.64;100.00;100823.06;5010665;28;20109;-80
2023/01/12 10:22:12;;;;;;;1.40;1.30;;;;;;;6.66;100.00;100823.16;5010820;28;20026;-80
2023/01/12 10:24:40;;;;;;;1.60;1.50;;;;;;;6.63;100.00;100811.91;5009124;28;20127;-80
2023/01/12 10:27:12;;;;;;;2.85;2.13;;;;;;;6.66;100.00;100815.47;5010527;28;20472;-81
2023/01/12 10:29:38;;;;;;;3.83;2.88;;;;;;;6.29;100.00;100739.81;5008324;28;20125;-80
2023/01/12 10:32:04;;;;;;;2.90;1.83;;;;;;;6.68;100.00;100790.78;5008260;28;20551;-80
2023/01/12 10:34:48;;;;;;;3.17;2.63;;;;;;;6.75;100.00;100800.59;5008048;28;20049;-80
2023/01/12 10:37:13;;;;;;;9.27;6.00;;;;;;;6.82;100.00;100797.59;5008039;28;20497;-80
2023/01/12 10:39:41;;;;;;;4.15;3.03;;;;;;;6.91;100.00;100807.50;5008237;28;20042;-80
2023/01/12 10:45:19;;;;;;;2.80;2.05;;;;;;;6.96;100.00;100801.81;5007869;28;20080;-80
2023/01/12 10:47:46;;;;;;;4.07;2.08;;;;;;;6.99;100.00;100802.78;5008282;28;20126;-81
2023/01/12 10:50:41;;;;;;;4.53;4.05;;;;;;;6.88;100.00;100805.66;5008146;28;20077;-79
2023/01/12 10:53:14;;;;;;;3.40;2.78;;;;;;;6.80;100.00;100812.00;4968976;28;20050;-80
2023/01/12 10:55:41;;;;;;;3.60;2.63;;;;;;;6.64;100.00;100777.78;4968983;28;20066;-79
2023/01/12 10:58:21;;;;;;;4.28;2.97;;;;;;;6.86;100.00;100794.41;4968983;28;20106;-79
2023/01/12 11:00:48;;;;;;;3.70;3.05;;;;;;;6.89;100.00;100792.03;4968840;28;20129;-79
2023/01/12 11:03:29;;;;;;;8.93;7.18;;;;;;;7.02;100.00;100795.28;4969138;28;20037;-80
2023/01/12 11:05:55;;;;;;;11.07;9.18;;;;;;;6.95;100.00;100776.97;4969042;28;20409;-80
2023/01/12 11:08:23;;;;;;;19.00;17.08;;;;;;;6.52;100.00;100697.56;4971076;28;20023;-79
2023/01/12 11:11:34;;;;;;;8.45;7.63;;;;;;;7.10;100.00;100794.91;4972430;28;20035;-80
2023/01/12 11:14:02;;;;;;;4.50;3.63;;;;;;;7.22;100.00;100799.84;4914643;29;20042;-80
2023/01/12 11:16:49;;;;;;;7.43;4.57;;;;;;;7.30;100.00;100800.25;4899026;29;20044;-79
2023/01/12 11:19:17;;;;;;;3.63;2.97;;;;;;;7.30;100.00;100787.41;4914709;29;20040;-80
2023/01/12 11:21:49;;;;;;;5.43;4.07;;;;;;;6.90;100.00;100721.94;4914702;29;20123;-79
2023/01/12 11:24:30;;;;;;;4.57;3.20;;;;;;;7.28;100.00;100771.06;4914719;29;20047;-79
2023/01/12 11:27:05;;;;;;;3.45;2.90;;;;;;;6.93;100.00;100711.81;4914486;29;20036;-79
2023/01/12 11:29:55;;;;;;;3.60;2.90;;;;;;;7.30;100.00;100805.41;4917627;29;20038;-79
2023/01/12 11:32:53;;;;;;;3.45;2.88;;;;;;;7.20;100.00;100775.78;4952952;29;20600;-79
2023/01/12 11:35:36;;;;;;;2.85;2.20;;;;;;;7.19;100.00;100796.22;4952586;29;20869;-79
2023/01/12 11:38:16;;;;;;;2.90;2.45;;;;;;;7.06;100.00;100774.13;4936340;29;20038;-79
2023/01/12 11:41:06;;;;;;;4.22;3.38;;;;;;;7.15;100.00;100782.31;4914969;29;20067;-79
2023/01/12 11:43:48;;;;;;;4.47;3.13;;;;;;;7.15;100.00;100776.31;4933239;29;20131;-78
2023/01/12 11:46:19;;;;;;;22.48;12.10;;;;;;;7.19;100.00;100779.16;4932927;29;20051;-79
2023/01/12 11:48:52;;;;;;;5.00;3.70;;;;;;;7.26;100.00;100775.22;4933342;29;20169;-77
2023/01/12 11:51:18;;;;;;;7.35;5.07;;;;;;;6.84;100.00;100700.16;4949738;28;20083;-79
2023/01/12 11:53:44;;;;;;;5.45;4.22;;;;;;;7.20;100.00;100759.47;4971552;28;20571;-79
2023/01/12 11:56:15;;;;;;;4.80;3.88;;;;;;;7.33;100.00;100763.59;4971595;28;20046;-79
2023/01/12 11:58:59;;;;;;;4.57;3.90;;;;;;;7.32;100.00;100765.28;4971909;28;20151;-79
2023/01/12 12:01:49;;;;;;;4.82;4.05;;;;;;;7.33;100.00;100758.44;4971594;28;20043;-79
2023/01/12 12:04:43;;;;;;;4.53;3.20;;;;;;;7.27;100.00;100757.31;4971559;28;20059;-79
2023/01/12 12:07:34;;;;;;;5.95;3.95;;;;;;;6.88;100.00;100677.31;4971280;28;20584;-79
2023/01/12 12:10:22;;;;;;;5.97;3.60;;;;;;;7.28;100.00;100753.94;4898025;29;20442;-78
2023/01/12 12:12:47;;;;;;;3.65;2.70;;;;;;;7.21;100.00;100756.97;4960370;28;20121;-78
2023/01/12 12:15:35;;;;;;;6.05;3.95;;;;;;;7.15;100.00;100748.94;4971285;28;20137;-78